Latest Weather Observations for Hamilton

IDV60801

Issued at 11:31 pm EST Sunday 24 May 2015 (issued every 30 minutes, with the page automatically refreshed every 10 minutes)

About weather observations | Map of weather stations | Latest weather observations for VIC | Other Formats
Station Details ID: 090173 Name: HAMILTON AIRPORT Lat: -37.65 Lon: 142.06 Height: 241.1 m
Data from the previous 72 hours. | See also: Recent months at Hamilton
Date/Time
EST
Temp
°C
App
Temp
°C
Dew
Point
Rel
Hum
%
Delta-T
°C
Wind Press
QNH
hPa
Press
MSL
hPa
Rain
since 9 am
mm
Dir
 
Spd
km/h
Gust
km/h
Spd
kts
Gust
kts
24/11:30pm 7.2 3.2 4.9 85 1.0 N 15 17 8 9 1029.7 1029.9 0.0
24/11:00pm 7.7 4.5 5.0 83 1.2 N 11 13 6 7 1030.0 1030.2 0.0
24/10:30pm 7.4 4.2 5.0 85 1.1 N 11 13 6 7 1030.1 1030.3 0.0
24/10:00pm 7.2 3.7 5.3 88 0.8 NNW 13 15 7 8 1030.1 1030.3 0.0
24/09:30pm 7.2 3.6 5.2 87 0.9 N 13 15 7 8 1030.1 1030.3 0.0
24/09:00pm 7.4 4.3 5.4 87 0.9 N 11 13 6 7 1030.1 1030.3 0.0
24/08:30pm 7.6 4.5 5.4 86 1.0 N 11 13 6 7 1030.0 1030.2 0.0
24/08:00pm 8.2 5.5 5.5 83 1.2 N 9 11 5 6 1029.9 1030.1 0.0
24/07:30pm 7.7 5.9 5.3 85 1.1 WSW 4 6 2 3 1030.1 1030.3 0.0
24/07:00pm 8.5 5.8 5.4 81 1.4 N 9 11 5 6 1029.8 1030.0 0.0
24/06:30pm 9.2 6.5 5.6 78 1.7 N 9 9 5 5 1029.6 1029.8 0.0
24/06:00pm 9.1 6.7 5.1 76 1.8 NNW 7 7 4 4 1029.5 1029.7 0.0
24/05:30pm 9.6 7.2 5.2 74 2.0 NW 7 9 4 5 1029.2 1029.3 0.0
24/05:00pm 11.0 6.7 5.3 68 2.6 NNW 17 20 9 11 1029.1 1029.2 0.0
24/04:30pm 11.8 7.4 6.5 70 2.5 N 19 24 10 13 1028.9 1029.0 0.0
24/04:00pm 11.8 7.4 6.5 70 2.5 N 19 24 10 13 1029.0 1029.1 0.0
24/03:30pm 12.3 7.8 6.1 66 3.0 NNW 19 24 10 13 1028.9 1029.0 0.0
24/03:00pm 11.7 6.9 5.6 66 2.8 NNW 20 26 11 14 1028.9 1029.0 0.0
24/02:30pm 12.2 7.8 6.7 69 2.7 NNW 19 22 10 12 1029.1 1029.2 0.0
24/02:00pm 11.9 7.5 6.4 69 2.6 NNW 19 24 10 13 1029.3 1029.4 0.0
24/01:30pm 12.3 7.8 6.8 69 2.7 NNW 20 30 11 16 1029.5 1029.7 0.0
24/01:00pm 12.6 8.7 6.9 68 2.8 NNW 17 24 9 13 1029.6 1029.8 0.0
24/12:30pm 11.5 7.4 6.2 70 2.5 NNW 17 20 9 11 1029.9 1030.1 0.0
24/12:00pm 11.2 7.2 6.7 74 2.1 NNW 17 20 9 11 1030.0 1030.2 0.0
24/11:30am 9.9 6.1 5.7 75 2.0 N 15 19 8 10 1030.3 1030.5 0.0
24/11:00am 9.9 5.2 5.9 76 1.8 NNW 20 26 11 14 1030.6 1030.8 0.0
24/10:30am 9.7 4.6 5.9 77 1.8 N 22 32 12 17 1030.5 1030.7 0.0
24/10:00am 8.3 3.8 6.1 86 1.0 N 19 22 10 12 1030.5 1030.7 0.0
24/09:30am 5.6 2.3 4.7 94 0.4 N 11 15 6 8 1030.8 1031.0 0.0
24/09:00am 3.8 0.2 3.2 96 0.2 N 11 13 6 7 1030.8 1031.0 0.2
24/08:30am 2.8 -0.5 2.2 96 0.2 NW 9 11 5 6 1030.6 1030.8 0.2
24/08:00am 2.6 -1.5 2.2 97 0.2 N 13 15 7 8 1030.2 1030.4 0.0
24/07:30am 2.4 -1.4 2.0 97 0.2 N 11 13 6 7 1030.0 1030.2 0.0
24/07:00am 2.2 -1.2 1.8 97 0.2 N 9 11 5 6 1030.0 1030.2 0.0
24/06:30am 1.2 -2.8 0.6 96 0.2 N 11 13 6 7 1029.7 1029.9 0.0
24/06:19am 1.4 -2.5 1.0 97 0.2 N 11 13 6 7 1029.7 1029.9 0.0
24/06:00am 1.8 -2.1 1.4 97 0.2 N 11 13 6 7 1029.6 1029.8 0.0
24/05:30am 2.3 -1.1 1.7 96 0.2 NNE 9 11 5 6 1029.3 1029.4 0.0
24/05:10am 3.2 1.7 2.8 97 0.2 CALM 0 0 0 0 1029.3 1029.4 0.0
24/05:00am 3.1 1.5 2.7 97 0.2 CALM 0 0 0 0 1029.3 1029.4 0.0
24/04:37am 1.7 -0.5 1.1 96 0.2 NNW 2 6 1 3 1029.3 1029.4 0.0
24/04:30am 2.3 -0.6 1.7 96 0.2 NNW 6 7 3 4 1029.3 1029.4 0.0
24/04:08am 3.8 1.0 3.2 96 0.2 NNW 7 9 4 5 1029.4 1029.6 0.0
24/04:00am 4.1 1.4 3.7 97 0.2 NNW 7 9 4 5 1029.2 1029.3 0.0
24/03:49am 4.0 1.3 3.6 97 0.2 NNW 7 7 4 4 1029.2 1029.3 0.0
24/03:30am 2.5 0.1 1.9 96 0.2 WSW 4 6 2 3 1029.3 1029.4 0.0
24/03:00am 2.3 0.2 1.7 96 0.2 ENE 2 6 1 3 1029.2 1029.3 0.0
24/02:30am 2.6 -0.8 2.0 96 0.2 ENE 9 9 5 5 1029.2 1029.3 0.0
24/02:00am 2.8 -0.2 2.1 95 0.3 ENE 7 9 4 5 1029.4 1029.6 0.0
24/01:30am 3.5 0.8 2.8 95 0.3 ESE 6 7 3 4 1029.5 1029.7 0.0
24/01:26am 3.2 0.5 2.5 95 0.3 ESE 6 7 3 4 1029.5 1029.7 0.0
24/01:00am 3.7 1.1 3.0 95 0.3 ESE 6 7 3 4 1029.6 1029.8 0.0
24/12:30am 3.1 0.1 2.2 94 0.4 ENE 7 9 4 5 1029.6 1029.8 0.0
24/12:00am 4.2 1.0 3.3 94 0.4 ENE 9 11 5 6 1029.7 1029.9 0.0
 
Date/Time
EST
Temp
°C
App
Temp
°C
Dew
Point
Rel
Hum
%
Delta-T
°C
Wind Press
QNH
hPa
Press
MSL
hPa
Rain
since 9 am
mm
Dir
 
Spd
km/h
Gust
km/h
Spd
kts
Gust
kts
23/11:30pm 3.8 0.9 2.8 93 0.4 ENE 7 9 4 5 1029.8 1030.0 0.0
23/11:00pm 4.4 0.1 3.4 93 0.4 E 15 19 8 10 1030.0 1030.2 0.0
23/10:30pm 4.5 -0.2 3.3 92 0.5 E 17 20 9 11 1030.0 1030.2 0.0
23/10:00pm 5.1 0.2 3.9 92 0.5 E 19 24 10 13 1030.2 1030.4 0.0
23/09:30pm 3.9 -0.8 3.0 94 0.4 ESE 17 22 9 12 1030.6 1030.8 0.0
23/09:00pm 4.2 -0.1 3.3 94 0.4 ESE 15 17 8 9 1030.9 1031.1 0.0
23/08:30pm 4.6 0.0 3.6 93 0.4 ESE 17 17 9 9 1031.0 1031.2 0.0
23/08:00pm 5.0 0.5 4.0 93 0.4 ESE 17 19 9 10 1030.9 1031.1 0.0
23/07:30pm 5.3 1.2 4.1 92 0.5 SE 15 17 8 9 1030.8 1031.0 0.0
23/07:00pm 6.1 1.3 4.7 91 0.6 SE 19 20 10 11 1030.6 1030.8 0.0
23/06:30pm 6.4 2.4 4.7 89 0.7 SE 15 17 8 9 1030.6 1030.8 0.0
23/06:00pm 6.9 2.9 5.1 88 0.8 SE 15 17 8 9 1030.5 1030.7 0.0
23/05:30pm 8.1 4.3 5.6 84 1.1 SE 15 17 8 9 1030.4 1030.6 0.0
23/05:00pm 9.5 5.4 6.0 79 1.6 ESE 17 20 9 11 1030.5 1030.7 0.0
23/04:30pm 10.1 6.4 6.1 76 1.9 ESE 15 20 8 11 1030.5 1030.7 0.0
23/04:00pm 11.0 7.3 6.2 72 2.3 SE 15 19 8 10 1030.6 1030.8 0.0
23/03:30pm 11.6 7.5 6.3 70 2.5 SE 17 20 9 11 1030.5 1030.7 0.0
23/03:00pm 11.5 7.9 6.6 72 2.3 ESE 15 20 8 11 1030.5 1030.7 0.0
23/02:30pm 11.4 6.9 5.9 69 2.6 ESE 19 24 10 13 1030.5 1030.7 0.0
23/02:00pm 11.6 7.1 6.3 70 2.5 ESE 19 24 10 13 1030.5 1030.7 0.0
23/01:30pm 11.1 6.3 5.8 70 2.5 ESE 20 24 11 13 1030.9 1031.1 0.0
23/01:00pm 10.6 5.8 5.8 72 2.2 ESE 20 26 11 14 1031.3 1031.5 0.0
23/12:30pm 10.0 4.7 5.2 72 2.2 ESE 22 28 12 15 1031.5 1031.7 0.0
23/12:00pm 9.8 4.5 5.2 73 2.1 ESE 22 26 12 14 1032.0 1032.2 0.0
23/11:30am 9.2 4.4 4.6 73 2.1 ESE 19 24 10 13 1032.8 1032.9 0.0
23/11:00am 9.0 4.0 4.4 73 2.0 E 20 26 11 14 1033.1 1033.3 0.0
23/10:30am 8.5 2.7 4.3 75 1.9 ESE 24 32 13 17 1033.1 1033.3 0.0
23/10:00am 8.1 2.3 4.5 78 1.6 ESE 24 28 13 15 1033.2 1033.4 0.0
23/09:30am 7.5 1.9 3.7 77 1.6 E 22 30 12 16 1033.2 1033.4 0.0
23/09:00am 7.0 0.7 3.6 79 1.5 ESE 26 32 14 17 1033.1 1033.3 0.0
23/08:30am 6.4 -0.3 3.4 81 1.3 ESE 28 33 15 18 1032.8 1032.9 0.0
23/08:00am 6.0 0.8 3.3 83 1.1 ESE 20 30 11 16 1032.9 1033.0 0.0
23/07:30am 6.3 1.3 3.5 82 1.2 ESE 19 24 10 13 1032.9 1033.0 0.0
23/07:00am 6.3 2.1 3.6 83 1.1 ESE 15 20 8 11 1032.5 1032.7 0.0
23/06:30am 6.4 2.2 3.7 83 1.2 ESE 15 20 8 11 1032.3 1032.5 0.0
23/06:00am 6.6 1.0 3.6 81 1.3 SE 22 32 12 17 1032.1 1032.3 0.0
23/05:30am 6.9 2.0 3.9 81 1.3 ESE 19 28 10 15 1032.0 1032.2 0.0
23/05:00am 7.0 2.5 4.1 82 1.3 ESE 17 24 9 13 1031.8 1032.0 0.0
23/04:30am 7.3 2.4 4.1 80 1.4 SE 19 24 10 13 1031.8 1032.0 0.0
23/04:00am 7.4 2.5 4.2 80 1.4 ESE 19 24 10 13 1031.7 1031.9 0.0
23/03:30am 7.6 3.1 4.2 79 1.5 ESE 17 24 9 13 1031.8 1032.0 0.0
23/03:00am 7.7 3.3 4.7 81 1.3 ESE 17 24 9 13 1031.8 1032.0 0.0
23/02:30am 7.9 2.5 4.7 80 1.4 ESE 22 32 12 17 1032.0 1032.2 0.0
23/02:00am 8.1 2.7 4.7 79 1.5 ESE 22 30 12 16 1031.9 1032.1 0.0
23/01:30am 8.1 3.3 4.9 80 1.4 ESE 19 24 10 13 1031.8 1032.0 0.0
23/01:00am 8.2 3.3 5.0 80 1.4 SE 20 26 11 14 1031.7 1031.9 0.0
23/12:30am 8.0 3.2 4.9 81 1.4 ESE 19 24 10 13 1032.0 1032.2 0.0
23/12:00am 7.7 2.9 4.7 81 1.3 ESE 19 24 10 13 1032.1 1032.3 0.0
 
Date/Time
EST
Temp
°C
App
Temp
°C
Dew
Point
Rel
Hum
%
Delta-T
°C
Wind Press
QNH
hPa
Press
MSL
hPa
Rain
since 9 am
mm
Dir
 
Spd
km/h
Gust
km/h
Spd
kts
Gust
kts
22/11:30pm 7.3 2.8 4.4 82 1.3 ESE 17 20 9 11 1032.3 1032.5 0.0
22/11:00pm 7.5 2.4 4.1 79 1.5 SE 20 24 11 13 1032.4 1032.6 0.0
22/10:30pm 8.1 3.1 4.5 78 1.6 SE 20 30 11 16 1032.7 1032.8 0.0
22/10:00pm 8.3 3.5 4.7 78 1.6 SE 19 22 10 12 1032.7 1032.8 0.0
22/09:30pm 8.4 4.0 4.8 78 1.6 SE 17 26 9 14 1032.8 1032.9 0.0
22/09:00pm 8.6 4.2 5.0 78 1.6 SE 17 22 9 12 1032.8 1032.9 0.0
22/08:30pm 8.7 3.7 4.5 75 1.9 SE 20 26 11 14 1032.7 1032.8 0.0
22/08:00pm 8.9 4.6 5.1 77 1.7 SSE 17 22 9 12 1032.5 1032.7 0.0
22/07:30pm 8.9 4.6 5.3 78 1.6 SSE 17 26 9 14 1032.3 1032.5 0.0
22/07:00pm 9.1 4.3 4.9 75 1.9 SSE 19 26 10 14 1032.4 1032.6 0.0
22/06:30pm 9.1 4.3 4.7 74 2.0 SE 19 26 10 14 1032.1 1032.3 0.0
22/06:00pm 9.2 4.4 4.8 74 2.0 SSE 19 24 10 13 1031.9 1032.1 0.0
22/05:30pm 9.4 5.0 5.0 74 2.0 SSE 17 24 9 13 1031.7 1031.9 0.0
22/05:00pm 9.7 4.8 5.1 73 2.1 SSE 20 28 11 15 1031.7 1031.9 0.0
22/04:30pm 9.9 5.3 5.7 75 2.0 SSE 19 28 10 15 1031.5 1031.7 0.0
22/04:00pm 10.2 5.7 6.0 75 2.0 SSE 19 22 10 12 1031.3 1031.5 0.0
22/03:30pm 10.4 5.6 5.6 72 2.2 SE 20 28 11 15 1031.0 1031.2 0.0
22/03:00pm 10.8 5.3 5.8 71 2.3 SSE 24 30 13 16 1030.9 1031.1 0.0
22/02:30pm 10.8 6.0 5.6 70 2.4 SSE 20 28 11 15 1030.7 1030.9 0.0
22/02:00pm 10.8 6.0 5.8 71 2.3 SE 20 26 11 14 1030.9 1031.1 0.0
22/01:30pm 11.0 5.6 6.2 72 2.3 SSE 24 30 13 16 1031.0 1031.2 0.0
22/01:00pm 10.7 5.5 5.7 71 2.3 SSE 22 33 12 18 1031.0 1031.2 0.0
22/12:30pm 11.1 6.1 6.5 73 2.2 SE 22 32 12 17 1031.0 1031.2 0.0
22/12:00pm 10.8 5.1 4.9 67 2.7 SE 24 30 13 16 1031.3 1031.5 0.0
22/11:30am 10.9 4.6 5.7 70 2.4 SE 28 33 15 18 1031.4 1031.6 0.0
22/11:00am 11.0 5.4 5.5 69 2.5 SE 24 32 13 17 1031.4 1031.6 0.0
22/10:30am 10.8 6.0 5.8 71 2.3 SSE 20 26 11 14 1031.3 1031.5 0.0
22/10:00am 10.5 5.8 5.9 73 2.1 SSE 20 26 11 14 1031.1 1031.3 0.0
22/09:30am 10.0 5.5 6.0 76 1.9 SSE 19 24 10 13 1031.0 1031.2 0.0
22/09:00am 9.5 5.4 6.0 79 1.6 S 17 20 9 11 1030.8 1031.0 1.2
22/08:30am 9.1 5.4 6.4 83 1.3 SSE 15 19 8 10 1030.5 1030.7 1.2
22/08:00am 8.9 4.9 6.5 85 1.1 SSE 17 22 9 12 1030.3 1030.5 1.2
22/07:30am 8.8 4.9 6.9 88 0.9 SSE 17 20 9 11 1030.0 1030.2 1.2
22/07:00am 8.9 5.1 7.4 90 0.7 SSE 17 20 9 11 1029.7 1029.9 1.2
22/06:30am 8.9 5.1 7.4 90 0.7 SSE 17 22 9 12 1029.4 1029.6 1.2
22/06:00am 8.8 4.6 7.4 91 0.7 SSE 19 24 10 13 1029.1 1029.2 1.2
22/05:30am 8.2 4.7 7.1 93 0.5 S 15 20 8 11 1029.1 1029.2 1.2
22/05:00am 7.8 4.2 6.6 92 0.6 S 15 19 8 10 1028.9 1029.0 1.2
22/04:30am 7.6 4.4 6.7 94 0.4 S 13 17 7 9 1028.8 1028.9 1.2
22/04:00am 6.8 3.5 6.2 96 0.3 SSE 13 15 7 8 1028.6 1028.7 1.2
22/03:30am 6.3 2.9 5.7 96 0.3 S 13 17 7 9 1028.5 1028.6 1.2
22/03:00am 6.8 3.5 6.2 96 0.3 SSE 13 15 7 8 1028.6 1028.7 1.0
22/02:30am 7.0 3.3 6.4 96 0.3 S 15 17 8 9 1028.5 1028.6 1.0
22/02:00am 7.7 4.5 7.0 95 0.3 S 13 17 7 9 1028.4 1028.5 1.0
22/01:30am 8.4 5.0 7.6 95 0.4 S 15 20 8 11 1028.3 1028.4 1.0
22/01:17am 8.8 5.5 8.0 95 0.4 S 15 19 8 10 1028.4 1028.5 1.0
22/01:00am 8.9 5.2 8.1 95 0.4 S 17 22 9 12 1028.4 1028.5 1.0
22/12:30am 9.1 5.1 8.3 95 0.4 SSE 19 24 10 13 1028.3 1028.4 1.0
22/12:22am 9.1 4.2 8.3 95 0.4 SSE 24 30 13 16 1028.1 1028.3 1.0
22/12:10am 9.2 4.3 8.4 95 0.4 SSE 24 32 13 17 1028.1 1028.3 1.0
22/12:06am 9.2 4.7 8.4 95 0.4 SSE 22 30 12 16 1028.1 1028.3 1.0
22/12:00am 9.1 4.5 8.3 95 0.4 SSE 22 28 12 15 1028.0 1028.2 1.0
 
Date/Time
EST
Temp
°C
App
Temp
°C
Dew
Point
Rel
Hum
%
Delta-T
°C
Wind Press
QNH
hPa
Press
MSL
hPa
Rain
since 9 am
mm
Dir
 
Spd
km/h
Gust
km/h
Spd
kts
Gust
kts
21/11:32pm 9.1 4.5 8.3 95 0.4 SSE 22 30 12 16 1028.0 1028.2 1.0

Other Formats:

Comma delimited format used in spreadsheet applications
http://www.bom.gov.au/fwo/IDV60801/IDV60801.94829.axf

JavaScript Object Notation format (JSON) in row-major order
http://www.bom.gov.au/fwo/IDV60801/IDV60801.94829.json